• Join FlightAware (Why Join?)
  • Login
  • US Flag 
09:24AM EDT


 

Airport Tracker/Info


-or-


 

Live Flight TrackerFlight Track Log ✈ DAL1515 ✈ 06-Jul-2013 ✈ KATL - KALB

Flight Track Log - Related Links

Times and Time Zones

All times are in EDT time to prevent confusion due to time zone crossing. See the DAL1515 flight status page for this flight to view local times or setup timezone preferences in your user account.

Time Position Orientation Groundspeed Altitude Reporting Facility
EDT Latitude Longitude Course Direction KTS MPH feet Rate Location/Type
08:28PM 33.6500 -84.3833 North 178 205 2,300  Level Atlanta TRACON
08:29PM 33.6667 -84.3000 76° East 269 310 4,800 2,760 Climbing Atlanta TRACON
08:30PM 33.8513 -84.1846 320° Northwest  Level FlightAware Approximate
08:30PM 33.6833 -84.2000 79° East 298 343 8,200  Level Atlanta TRACON
08:31PM 33.9558 -84.2667 North  Level FlightAware Approximate
08:32PM 34.0849 -84.2667 North  Level FlightAware Approximate
08:32PM 33.8714 -84.2064 358° North 351 404 13,300  Level Atlanta Center
08:33PM 34.2141 -84.2667 North  Level FlightAware Approximate
08:33PM 33.9631 -84.2867 324° Northwest 346 398 15,800  Level Atlanta Center
08:34PM 34.0569 -84.3472 332° Northwest 373 429 18,100 2,160 Climbing Atlanta Center
08:35PM 34.1589 -84.4053 335° Northwest 406 467 20,200 2,040 Climbing Atlanta Center
08:36PM 34.2653 -84.4736 332° Northwest 435 501 22,200 1,800 Climbing Atlanta Center
08:37PM 34.3800 -84.4994 349° North 428 493 23,800 1,500 Climbing Atlanta Center
08:38PM 34.5094 -84.4522 17° North 433 498 25,300 1,380 Climbing Atlanta Center
08:39PM 34.6306 -84.3997 20° North 441 507 26,600 1,440 Climbing Atlanta Center
08:40PM 34.7603 -84.3522 17° North 459 528 28,200 1,320 Climbing Atlanta Center
08:41PM 34.8833 -84.3019 19° North 465 535 29,300 960 Climbing Atlanta Center
08:42PM 34.9983 -84.2569 18° North 471 542 30,200 1,260 Climbing Atlanta Center
08:43PM 35.1278 -84.2039 19° North 477 549 31,900 1,320 Climbing Atlanta Center
08:44PM 35.2572 -84.1533 18° North 482 555 32,900 900 Climbing Atlanta Center
08:45PM 35.3867 -84.1000 19° North 482 555 33,800 900 Climbing Atlanta Center
08:46PM 35.5158 -84.0514 17° North 482 555 34,800 600 Climbing Atlanta Center
08:47PM 35.6431 -83.9978 19° North 482 555 35,000 60 Climbing Atlanta Center
08:48PM 35.7744 -83.9492 17° North 482 555 35,000  Level Atlanta Center
08:49PM 35.8997 -83.8953 19° North 482 555 35,000  Level Atlanta Center
08:52PM 36.2158 -83.6972 27° Northeast 491 565 35,000  Level Indianapolis Center
08:53PM 36.3378 -83.6175 28° Northeast 495 570 35,000  Level Indianapolis Center
08:54PM 36.4622 -83.5383 27° Northeast 499 574 35,000  Level Indianapolis Center
08:55PM 36.5864 -83.4600 27° Northeast 495 570 35,000  Level Indianapolis Center
08:56PM 36.7019 -83.3636 34° Northeast 499 574 35,000  Level Indianapolis Center
08:57PM 36.8133 -83.2583 37° Northeast 500 575 35,000  Level Indianapolis Center
08:58PM 36.9256 -83.1547 36° Northeast 497 572 35,000  Level Indianapolis Center
08:59PM 37.0386 -83.0514 36° Northeast 493 567 35,000  Level Indianapolis Center
09:00PM 37.1508 -82.9447 37° Northeast 497 572 35,000  Level Indianapolis Center
09:01PM 37.2586 -82.8394 38° Northeast 490 564 35,000  Level Indianapolis Center
09:02PM 37.3697 -82.7356 37° Northeast 494 568 35,000  Level Indianapolis Center
09:03PM 37.4789 -82.6322 37° Northeast 490 564 35,000  Level Indianapolis Center
09:04PM 37.5881 -82.5278 37° Northeast 491 565 35,000  Level Indianapolis Center
09:05PM 37.6969 -82.4211 38° Northeast 493 567 35,000  Level Indianapolis Center
09:06PM 37.8050 -82.3156 38° Northeast 492 566 35,000  Level Indianapolis Center
09:07PM 37.9125 -82.2097 38° Northeast 490 564 35,000  Level Indianapolis Center
09:08PM 38.0339 -82.0919 37° Northeast 493 567 35,000  Level Indianapolis Center
09:09PM 38.1406 -81.9856 38° Northeast 488 562 35,000 300 Level Indianapolis Center
09:10PM 38.2469 -81.8772 39° Northeast 490 564 35,700 720 Climbing Indianapolis Center
09:11PM 38.3528 -81.7675 39° Northeast 489 563 36,500 600 Climbing Indianapolis Center
09:12PM 38.4425 -81.6414 48° Northeast 484 557 37,000 240 Climbing Indianapolis Center
09:13PM 38.5278 -81.5111 50° Northeast 483 556 37,000  Level Indianapolis Center
09:14PM 38.5919 -81.3642 61° Northeast 482 555 37,000  Level Indianapolis Center
09:15PM 38.6583 -81.2189 60° Northeast 480 552 37,000  Level Indianapolis Center
09:16PM 38.7381 -81.0814 53° Northeast 485 558 37,000  Level Indianapolis Center
09:17PM 38.8372 -80.9208 52° Northeast 481 554 37,000  Level Indianapolis Center
09:18PM 38.9197 -80.7858 52° Northeast 481 554 37,000  Level Indianapolis Center
09:19PM 39.0022 -80.6508 52° Northeast 481 554 37,000  Level Indianapolis Center
09:20PM 39.0844 -80.5164 52° Northeast 480 552 37,000  Level Indianapolis Center
09:21PM 39.1650 -80.3814 52° Northeast 477 549 37,000  Level Indianapolis Center
09:22PM 39.2453 -80.2439 53° Northeast 480 552 37,000  Level Indianapolis Center
09:23PM 39.3244 -80.1064 53° Northeast 478 550 37,000  Level Indianapolis Center
09:24PM 39.4039 -79.9714 53° Northeast 474 545 37,000  Level Indianapolis Center
09:25PM 39.4833 -79.8381 52° Northeast 469 540 37,000  Level Indianapolis Center
09:26PM 39.5667 -79.7072 50° Northeast 469 540 37,000  Level Indianapolis Center
09:27PM 39.6458 -79.5717 53° Northeast 470 541 37,000  Level Indianapolis Center
09:28PM 39.7244 -79.4336 53° Northeast 475 547 37,000  Level Indianapolis Center
09:29PM 39.8139 -79.2831 52° Northeast 469 540 37,000  Level Cleveland Center
09:30PM 39.8956 -79.1489 52° Northeast 469 540 37,000  Level Cleveland Center
09:31PM 39.9792 -79.0117 51° Northeast 469 540 37,000  Level Cleveland Center
09:32PM 40.0522 -78.8772 55° Northeast 461 531 37,000  Level Cleveland Center
09:33PM 40.1356 -78.7364 52° Northeast 466 536 37,000  Level Cleveland Center
09:34PM 40.2125 -78.6011 53° Northeast 466 536 37,000  Level Cleveland Center
09:36PM 40.3514 -78.3542 54° Northeast 482 555 37,000  Level New York Center
09:37PM 40.4289 -78.2181 53° Northeast 480 552 37,000  Level New York Center
09:38PM 40.5086 -78.0764 53° Northeast 480 552 37,000  Level New York Center
09:39PM 40.5883 -77.9344 53° Northeast 475 547 37,000  Level New York Center
09:40PM 40.6656 -77.7947 54° Northeast 475 547 37,000 -240 Level New York Center
09:41PM 40.7444 -77.6547 53° Northeast 475 547 36,600 -660 Descending New York Center
09:42PM 40.8236 -77.5119 54° Northeast 480 552 35,700 -900 Descending New York Center
09:43PM 40.9003 -77.3711 54° Northeast 480 552 34,900 -840 Descending New York Center
09:44PM 40.9719 -77.2461 53° Northeast 475 547 34,100 -780 Descending New York Center
09:45PM 41.0553 -77.0889 55° Northeast 475 547 33,400 -900 Descending New York Center
09:46PM 41.1317 -76.9444 55° Northeast 478 550 32,400 -1,080 Descending New York Center
09:47PM 41.2097 -76.8028 54° Northeast 478 550 31,300 -1,020 Descending New York Center
09:48PM 41.2881 -76.6550 55° Northeast 478 550 30,400 -1,140 Descending New York Center
09:49PM 41.3678 -76.5156 53° Northeast 478 550 29,100 -720 Descending New York Center
09:50PM 41.4522 -76.3647 53° Northeast 484 557 29,000 -60 Descending New York Center
09:51PM 41.5258 -76.2131 57° Northeast 489 563 29,000  Level New York Center
09:52PM 41.6033 -76.0667 55° Northeast 489 563 29,000 -420 Level New York Center
09:54PM 41.7950 -75.6983 55° Northeast 483 556 27,700 -840 Descending Boston Center
09:55PM 41.8722 -75.5461 56° Northeast 483 556 26,200 -1,320 Descending Boston Center
09:56PM 41.9492 -75.3936 56° Northeast 483 556 25,100 -1,140 Descending Boston Center
09:57PM 42.0239 -75.2489 55° Northeast 478 550 24,000 -600 Descending Boston Center
09:58PM 42.0894 -75.1203 55° Northeast 478 550 24,000 -180 Level Boston Center
09:59PM 42.1636 -74.9750 55° Northeast 473 544 23,700 -1,500 Descending Boston Center
10:00PM 42.2225 -74.8597 55° Northeast 473 544 21,100 -3,180 Descending Boston Center
10:01PM 42.2833 -74.7328 57° Northeast 464 534 18,800 -3,420 Descending Boston Center
10:02PM 42.3139 -74.6694 57° Northeast 450 518 17,500 -3,120 Descending Boston Center
10:02PM 42.3811 -74.5397 55° Northeast 441 507 14,300 -3,000 Descending Boston Center
10:03PM 42.4372 -74.4292 55° Northeast 413 475 11,800 -1,800 Descending Boston Center
10:05PM 42.4958 -74.2900 60° Northeast 333 383 10,600 -1,260 Descending Boston Center
10:05PM 42.5078 -74.1975 80° East 318 366 9,300 -1,680 Descending Boston Center
10:06PM 42.5242 -74.0711 80° East 312 359 7,400 -1,740 Descending Boston Center
10:07PM 42.5381 -73.9700 79° East 312 359 5,900 -1,680 Descending Boston Center
10:08PM 42.5686 -73.8636 69° East 281 323 4,100 -1,560 Descending Boston Center
10:09PM 42.6006 -73.7997 56° Northeast 244 281 2,800 -1,320 Descending Boston Center